SWR54B LSZH-KBOS
Flight info
| Callsign | SWR54B |
|---|---|
| Flight time | N/A |
| Altitude | 38000 |
| Route | VEBIT T10 TORPA DCT REKLA DCT RLP DCT ROTSI DCT AMODO DCT COHPA UM729 RESMI UN491 LGL UN502 JSY DCT LIZAD DCT LULOX/M084F380 DCT DINIM/M084F390 NATF MUSAK/N0475F400 N296B TUSKY DCT EURRO OOSHN5 |
| Aircraft | A359/H-SABCDE2E3GHIJ1J4J5LM1OP2RWXYZ/CLB1D1 |
Departure
| Time | 2026-05-06 12:56 |
|---|---|
| Airport | Zürich Airport (LSZH) |
Arrival
| Time | N/A |
|---|---|
| Airport | Boston Logan International Airport (KBOS) |
| Time | Latitude | Longitude | Altitude | Speed | Heading |
|---|---|---|---|---|---|
| 2026-05-06 12:31 | 47.46141 | 8.55870 | 1411 ft | 0 kts | 276° |
| 2026-05-06 12:44 | 47.46139 | 8.55893 | 1411 ft | 4 kts | 276° |
| 2026-05-06 12:44 | 47.46137 | 8.55926 | 1412 ft | 4 kts | 277° |
| 2026-05-06 12:44 | 47.46131 | 8.55963 | 1412 ft | 4 kts | 301° |
| 2026-05-06 12:45 | 47.46113 | 8.55989 | 1413 ft | 5 kts | 345° |
| 2026-05-06 12:45 | 47.46089 | 8.55990 | 1413 ft | 6 kts | 6° |
| 2026-05-06 12:45 | 47.46067 | 8.55987 | 1413 ft | 0 kts | 6° |
| 2026-05-06 12:48 | 47.46072 | 8.55987 | 1413 ft | 1 kts | 6° |
| 2026-05-06 12:48 | 47.46096 | 8.55991 | 1418 ft | 6 kts | 5° |
| 2026-05-06 12:48 | 47.46161 | 8.56001 | 1417 ft | 11 kts | 6° |
| 2026-05-06 12:48 | 47.46217 | 8.55968 | 1412 ft | 7 kts | 302° |
| 2026-05-06 12:49 | 47.46228 | 8.55892 | 1410 ft | 10 kts | 276° |
| 2026-05-06 12:49 | 47.46237 | 8.55767 | 1412 ft | 15 kts | 276° |
| 2026-05-06 12:49 | 47.46249 | 8.55590 | 1405 ft | 18 kts | 276° |
| 2026-05-06 12:49 | 47.46261 | 8.55420 | 1405 ft | 16 kts | 276° |
| 2026-05-06 12:50 | 47.46272 | 8.55272 | 1404 ft | 13 kts | 276° |
| 2026-05-06 12:50 | 47.46281 | 8.55146 | 1402 ft | 12 kts | 276° |
| 2026-05-06 12:50 | 47.46289 | 8.55037 | 1398 ft | 10 kts | 276° |
| 2026-05-06 12:50 | 47.46295 | 8.54947 | 1395 ft | 9 kts | 276° |
| 2026-05-06 12:51 | 47.46303 | 8.54822 | 1394 ft | 15 kts | 276° |
| 2026-05-06 12:51 | 47.46348 | 8.54715 | 1395 ft | 12 kts | 329° |
| 2026-05-06 12:51 | 47.46424 | 8.54663 | 1396 ft | 13 kts | 335° |
| 2026-05-06 12:51 | 47.46513 | 8.54601 | 1397 ft | 16 kts | 335° |
| 2026-05-06 12:52 | 47.46633 | 8.54518 | 1393 ft | 23 kts | 335° |
| 2026-05-06 12:52 | 47.46799 | 8.54417 | 1385 ft | 27 kts | 341° |
| 2026-05-06 12:52 | 47.46960 | 8.54308 | 1391 ft | 24 kts | 334° |
| 2026-05-06 12:52 | 47.47103 | 8.54210 | 1402 ft | 21 kts | 336° |
| 2026-05-06 12:53 | 47.47226 | 8.54125 | 1403 ft | 19 kts | 334° |
| 2026-05-06 12:53 | 47.47345 | 8.54043 | 1401 ft | 17 kts | 335° |
| 2026-05-06 12:53 | 47.47444 | 8.53975 | 1401 ft | 14 kts | 335° |
| 2026-05-06 12:53 | 47.47527 | 8.53918 | 1400 ft | 12 kts | 334° |
| 2026-05-06 12:54 | 47.47589 | 8.53859 | 1405 ft | 11 kts | 313° |
| 2026-05-06 12:54 | 47.47607 | 8.53755 | 1403 ft | 11 kts | 261° |
| 2026-05-06 12:54 | 47.47585 | 8.53660 | 1405 ft | 8 kts | 240° |
| 2026-05-06 12:54 | 47.47551 | 8.53614 | 1411 ft | 6 kts | 188° |
| 2026-05-06 12:55 | 47.47423 | 8.53697 | 1407 ft | 47 kts | 155° |
| 2026-05-06 12:55 | 47.46914 | 8.54048 | 1389 ft | 112 kts | 155° |
| 2026-05-06 12:55 | 47.46036 | 8.54651 | 1400 ft | 165 kts | 156° |
| 2026-05-06 12:55 | 47.44986 | 8.55413 | 1968 ft | 165 kts | 154° |
| 2026-05-06 12:56 | 47.43973 | 8.56201 | 2626 ft | 167 kts | 153° |
| 2026-05-06 12:56 | 47.43326 | 8.57644 | 3101 ft | 177 kts | 97° |
| 2026-05-06 12:56 | 47.43610 | 8.59333 | 3652 ft | 170 kts | 53° |
| 2026-05-06 12:56 | 47.44569 | 8.60260 | 4066 ft | 169 kts | 10° |
| 2026-05-06 12:57 | 47.45710 | 8.59985 | 4423 ft | 170 kts | 328° |
| 2026-05-06 12:57 | 47.46450 | 8.58625 | 4690 ft | 180 kts | 288° |
| 2026-05-06 12:57 | 47.46599 | 8.56718 | 4934 ft | 196 kts | 269° |
| 2026-05-06 12:57 | 47.46524 | 8.54631 | 5162 ft | 215 kts | 266° |
| 2026-05-06 12:58 | 47.46403 | 8.52319 | 5444 ft | 235 kts | 265° |
| 2026-05-06 12:58 | 47.46266 | 8.49798 | 5728 ft | 255 kts | 265° |
| 2026-05-06 12:58 | 47.45689 | 8.47281 | 6143 ft | 267 kts | 234° |
| 2026-05-06 12:58 | 47.44451 | 8.45244 | 6750 ft | 273 kts | 226° |
| 2026-05-06 12:59 | 47.43260 | 8.43028 | 7405 ft | 277 kts | 235° |
| 2026-05-06 12:59 | 47.42091 | 8.40717 | 8141 ft | 282 kts | 231° |
| 2026-05-06 12:59 | 47.40889 | 8.38424 | 8968 ft | 282 kts | 232° |
| 2026-05-06 12:59 | 47.39705 | 8.36095 | 9726 ft | 285 kts | 232° |
| 2026-05-06 13:00 | 47.38603 | 8.33623 | 10341 ft | 295 kts | 239° |
| 2026-05-06 13:00 | 47.37609 | 8.30904 | 10699 ft | 313 kts | 241° |
| 2026-05-06 13:00 | 47.36576 | 8.27966 | 11031 ft | 330 kts | 241° |
| 2026-05-06 13:00 | 47.35493 | 8.24895 | 11519 ft | 340 kts | 240° |
| 2026-05-06 13:01 | 47.34403 | 8.21801 | 12171 ft | 345 kts | 240° |
| 2026-05-06 13:01 | 47.33289 | 8.18654 | 12915 ft | 346 kts | 240° |
| 2026-05-06 13:01 | 47.32167 | 8.15495 | 13599 ft | 349 kts | 240° |
| 2026-05-06 13:01 | 47.31036 | 8.12311 | 14236 ft | 352 kts | 240° |
| 2026-05-06 13:02 | 47.29887 | 8.09082 | 14910 ft | 355 kts | 240° |
| 2026-05-06 13:02 | 47.28836 | 8.06130 | 15530 ft | 357 kts | 240° |
| 2026-05-06 13:02 | 47.27761 | 8.02810 | 16185 ft | 361 kts | 246° |
| 2026-05-06 13:02 | 47.27195 | 7.99221 | 16775 ft | 369 kts | 263° |
| 2026-05-06 13:03 | 47.27225 | 7.95399 | 17319 ft | 377 kts | 271° |
| 2026-05-06 13:03 | 47.27506 | 7.91530 | 17889 ft | 381 kts | 275° |
| 2026-05-06 13:03 | 47.27907 | 7.87640 | 18513 ft | 384 kts | 276° |
| 2026-05-06 13:03 | 47.28347 | 7.83738 | 19117 ft | 388 kts | 276° |
| 2026-05-06 13:04 | 47.28786 | 7.79798 | 19716 ft | 390 kts | 276° |
| 2026-05-06 13:04 | 47.29202 | 7.75882 | 20298 ft | 393 kts | 275° |
| 2026-05-06 13:04 | 47.29607 | 7.71865 | 20870 ft | 396 kts | 275° |
| 2026-05-06 13:04 | 47.29999 | 7.67818 | 21415 ft | 400 kts | 275° |
| 2026-05-06 13:05 | 47.30454 | 7.63813 | 21949 ft | 404 kts | 280° |
| 2026-05-06 13:05 | 47.31178 | 7.59782 | 22503 ft | 407 kts | 283° |
| 2026-05-06 13:05 | 47.31986 | 7.55763 | 23015 ft | 411 kts | 284° |
| 2026-05-06 13:05 | 47.32847 | 7.51721 | 23499 ft | 414 kts | 284° |
| 2026-05-06 13:06 | 47.33735 | 7.47664 | 24000 ft | 417 kts | 285° |
| 2026-05-06 13:06 | 47.34637 | 7.43572 | 24502 ft | 419 kts | 284° |
| 2026-05-06 13:06 | 47.35528 | 7.39515 | 24939 ft | 423 kts | 284° |
| 2026-05-06 13:06 | 47.36434 | 7.35361 | 25392 ft | 426 kts | 284° |
| 2026-05-06 13:07 | 47.37339 | 7.31184 | 25861 ft | 428 kts | 284° |
| 2026-05-06 13:07 | 47.38248 | 7.26966 | 26314 ft | 431 kts | 283° |
| 2026-05-06 13:07 | 47.39159 | 7.22724 | 26705 ft | 435 kts | 283° |
| 2026-05-06 13:07 | 47.40064 | 7.18502 | 27133 ft | 437 kts | 283° |
| 2026-05-06 13:08 | 47.40864 | 7.14176 | 27578 ft | 436 kts | 279° |
| 2026-05-06 13:08 | 47.41561 | 7.09780 | 27952 ft | 439 kts | 278° |
| 2026-05-06 13:08 | 47.42230 | 7.05347 | 28313 ft | 442 kts | 277° |
| 2026-05-06 13:08 | 47.42878 | 7.00941 | 28684 ft | 445 kts | 277° |
| 2026-05-06 13:09 | 47.43531 | 6.96450 | 29067 ft | 448 kts | 277° |
| 2026-05-06 13:09 | 47.44187 | 6.91927 | 29441 ft | 450 kts | 276° |
| 2026-05-06 13:09 | 47.44842 | 6.87369 | 29733 ft | 454 kts | 276° |
| 2026-05-06 13:09 | 47.45503 | 6.82783 | 30072 ft | 456 kts | 276° |
| 2026-05-06 13:10 | 47.46162 | 6.78231 | 30405 ft | 459 kts | 276° |
| 2026-05-06 13:10 | 47.46830 | 6.73610 | 30729 ft | 462 kts | 276° |
| 2026-05-06 13:10 | 47.47502 | 6.68944 | 31067 ft | 464 kts | 276° |
| 2026-05-06 13:10 | 47.48018 | 6.64237 | 31382 ft | 462 kts | 271° |
| 2026-05-06 13:11 | 47.48411 | 6.59511 | 31651 ft | 464 kts | 271° |
| 2026-05-06 13:11 | 47.48771 | 6.54750 | 31936 ft | 465 kts | 270° |
| 2026-05-06 13:11 | 47.49110 | 6.50032 | 32197 ft | 467 kts | 270° |
| 2026-05-06 13:11 | 47.49447 | 6.45229 | 32459 ft | 469 kts | 270° |
| 2026-05-06 13:12 | 47.49784 | 6.40409 | 32730 ft | 470 kts | 270° |
| 2026-05-06 13:12 | 47.50116 | 6.35650 | 32970 ft | 472 kts | 270° |
| 2026-05-06 13:12 | 47.50454 | 6.30801 | 33225 ft | 473 kts | 270° |
| 2026-05-06 13:12 | 47.50791 | 6.25941 | 33503 ft | 474 kts | 270° |
| 2026-05-06 13:13 | 47.51128 | 6.21089 | 33884 ft | 471 kts | 270° |
| 2026-05-06 13:13 | 47.51458 | 6.16330 | 34299 ft | 468 kts | 270° |
| 2026-05-06 13:13 | 47.51789 | 6.11540 | 34577 ft | 467 kts | 270° |
| 2026-05-06 13:13 | 47.52115 | 6.06736 | 34752 ft | 469 kts | 270° |
| 2026-05-06 13:14 | 47.52438 | 6.01919 | 34968 ft | 470 kts | 271° |
| 2026-05-06 13:14 | 47.52758 | 5.97173 | 35179 ft | 471 kts | 271° |
| 2026-05-06 13:14 | 47.53262 | 5.92348 | 35341 ft | 477 kts | 278° |
| 2026-05-06 13:14 | 47.54198 | 5.87606 | 35582 ft | 482 kts | 286° |
| 2026-05-06 13:15 | 47.55611 | 5.83064 | 35801 ft | 488 kts | 295° |
| 2026-05-06 13:15 | 47.57518 | 5.78865 | 36028 ft | 493 kts | 304° |
| 2026-05-06 13:15 | 47.59714 | 5.75025 | 36223 ft | 495 kts | 307° |
| 2026-05-06 13:15 | 47.62030 | 5.71227 | 36422 ft | 496 kts | 308° |
| 2026-05-06 13:16 | 47.64387 | 5.67461 | 36632 ft | 496 kts | 309° |
| 2026-05-06 13:16 | 47.66747 | 5.63718 | 36872 ft | 494 kts | 309° |
| 2026-05-06 13:16 | 47.69089 | 5.59994 | 37212 ft | 490 kts | 309° |
| 2026-05-06 13:16 | 47.71380 | 5.56327 | 37499 ft | 487 kts | 309° |
| 2026-05-06 13:17 | 47.73687 | 5.52608 | 37703 ft | 486 kts | 309° |
| 2026-05-06 13:17 | 47.75976 | 5.48896 | 37842 ft | 487 kts | 308° |
| 2026-05-06 13:17 | 47.78244 | 5.45204 | 37879 ft | 489 kts | 308° |
| 2026-05-06 13:18 | 47.82847 | 5.37687 | 37867 ft | 491 kts | 308° |
| 2026-05-06 13:18 | 47.87451 | 5.30154 | 37863 ft | 490 kts | 308° |
| 2026-05-06 13:19 | 47.92018 | 5.22670 | 37889 ft | 490 kts | 309° |
| 2026-05-06 13:19 | 47.96607 | 5.15127 | 37889 ft | 490 kts | 308° |
| 2026-05-06 13:20 | 48.01158 | 5.07612 | 37889 ft | 490 kts | 309° |
| 2026-05-06 13:20 | 48.05736 | 5.00035 | 37885 ft | 490 kts | 309° |
| 2026-05-06 13:21 | 48.10313 | 4.92441 | 37889 ft | 490 kts | 309° |
| 2026-05-06 13:21 | 48.14848 | 4.84896 | 37891 ft | 490 kts | 309° |
| 2026-05-06 13:22 | 48.19418 | 4.77272 | 37883 ft | 490 kts | 309° |
| 2026-05-06 13:22 | 48.23906 | 4.69648 | 37883 ft | 489 kts | 305° |
| 2026-05-06 13:23 | 48.27301 | 4.60920 | 37885 ft | 481 kts | 288° |
| 2026-05-06 13:23 | 48.28869 | 4.51228 | 37886 ft | 477 kts | 277° |
| 2026-05-06 13:24 | 48.29806 | 4.41409 | 37888 ft | 477 kts | 275° |
| 2026-05-06 13:24 | 48.30656 | 4.31507 | 37887 ft | 477 kts | 275° |
| 2026-05-06 13:25 | 48.31523 | 4.21590 | 37891 ft | 478 kts | 275° |
| 2026-05-06 13:25 | 48.32398 | 4.11748 | 37885 ft | 478 kts | 275° |
| 2026-05-06 13:26 | 48.33279 | 4.01823 | 37891 ft | 478 kts | 275° |
| 2026-05-06 13:26 | 48.34147 | 3.91959 | 37890 ft | 478 kts | 275° |
| 2026-05-06 13:27 | 48.35009 | 3.82039 | 37887 ft | 478 kts | 275° |
| 2026-05-06 13:27 | 48.35858 | 3.72163 | 37885 ft | 478 kts | 275° |
| 2026-05-06 13:28 | 48.36703 | 3.62221 | 37889 ft | 478 kts | 275° |
| 2026-05-06 13:28 | 48.37540 | 3.52280 | 37886 ft | 478 kts | 275° |
| 2026-05-06 13:29 | 48.38365 | 3.42385 | 37895 ft | 478 kts | 275° |
| 2026-05-06 13:29 | 48.39181 | 3.32476 | 37899 ft | 478 kts | 275° |
| 2026-05-06 13:30 | 48.39993 | 3.22520 | 37897 ft | 478 kts | 275° |
| 2026-05-06 13:30 | 48.40789 | 3.12643 | 37906 ft | 478 kts | 275° |
| 2026-05-06 13:31 | 48.41451 | 3.04353 | 37906 ft | 478 kts | 275° |
| 2026-05-06 13:31 | 48.42678 | 2.94484 | 37907 ft | 480 kts | 283° |
| 2026-05-06 13:32 | 48.44456 | 2.84823 | 37906 ft | 481 kts | 284° |
| 2026-05-06 13:32 | 48.46331 | 2.75131 | 37906 ft | 480 kts | 284° |
| 2026-05-06 13:33 | 48.48185 | 2.65484 | 37916 ft | 481 kts | 284° |
| 2026-05-06 13:33 | 48.50031 | 2.55765 | 37915 ft | 481 kts | 284° |
| 2026-05-06 13:34 | 48.51851 | 2.46104 | 37916 ft | 480 kts | 284° |
| 2026-05-06 13:34 | 48.53673 | 2.36377 | 37916 ft | 480 kts | 284° |
| 2026-05-06 13:35 | 48.55477 | 2.26703 | 37916 ft | 480 kts | 284° |
| 2026-05-06 13:35 | 48.57278 | 2.16972 | 37915 ft | 480 kts | 283° |
| 2026-05-06 13:36 | 48.58734 | 2.07184 | 37915 ft | 480 kts | 280° |
| 2026-05-06 13:36 | 48.60021 | 1.97261 | 37914 ft | 480 kts | 279° |
| 2026-05-06 13:37 | 48.61330 | 1.87419 | 37915 ft | 480 kts | 280° |
| 2026-05-06 13:37 | 48.62687 | 1.77512 | 37916 ft | 480 kts | 281° |
| 2026-05-06 13:38 | 48.64041 | 1.67672 | 37915 ft | 480 kts | 280° |
| 2026-05-06 13:38 | 48.65395 | 1.57761 | 37921 ft | 480 kts | 280° |
| 2026-05-06 13:39 | 48.66722 | 1.47911 | 37927 ft | 480 kts | 280° |
| 2026-05-06 13:39 | 48.68045 | 1.38005 | 37926 ft | 480 kts | 280° |
| 2026-05-06 13:40 | 48.69356 | 1.28150 | 37935 ft | 480 kts | 280° |
| 2026-05-06 13:40 | 48.70665 | 1.18233 | 37936 ft | 480 kts | 280° |
| 2026-05-06 13:41 | 48.71968 | 1.08288 | 37947 ft | 480 kts | 280° |
| 2026-05-06 13:41 | 48.73251 | 0.98433 | 37945 ft | 480 kts | 280° |
| 2026-05-06 13:42 | 48.74536 | 0.88489 | 37944 ft | 480 kts | 280° |
| 2026-05-06 13:42 | 48.75811 | 0.78612 | 37939 ft | 480 kts | 280° |
| 2026-05-06 13:43 | 48.77086 | 0.68660 | 37939 ft | 480 kts | 280° |
| 2026-05-06 13:43 | 48.78350 | 0.58724 | 37951 ft | 479 kts | 280° |
| 2026-05-06 13:44 | 48.79644 | 0.48847 | 37948 ft | 480 kts | 283° |
| 2026-05-06 13:44 | 48.81415 | 0.39048 | 37949 ft | 480 kts | 285° |
| 2026-05-06 13:45 | 48.83288 | 0.29381 | 37956 ft | 480 kts | 285° |
| 2026-05-06 13:45 | 48.85982 | 0.14735 | 37953 ft | 479 kts | 284° |
| 2026-05-06 13:46 | 48.87715 | 0.04985 | 37981 ft | 480 kts | 284° |
| 2026-05-06 13:46 | 48.89445 | -0.04831 | 37981 ft | 479 kts | 284° |
| 2026-05-06 13:47 | 48.91136 | -0.14586 | 37981 ft | 476 kts | 284° |
| 2026-05-06 13:47 | 48.92835 | -0.24271 | 37980 ft | 475 kts | 285° |
| 2026-05-06 13:48 | 48.94515 | -0.33954 | 37990 ft | 475 kts | 284° |
| 2026-05-06 13:48 | 48.96158 | -0.43722 | 37990 ft | 475 kts | 284° |
| 2026-05-06 13:49 | 48.97779 | -0.53437 | 37990 ft | 475 kts | 284° |
| 2026-05-06 13:49 | 48.99406 | -0.63210 | 37991 ft | 475 kts | 284° |
| 2026-05-06 13:50 | 49.01025 | -0.72976 | 37990 ft | 475 kts | 284° |
| 2026-05-06 13:50 | 49.02629 | -0.82708 | 37990 ft | 475 kts | 284° |
| 2026-05-06 13:51 | 49.04233 | -0.92493 | 37990 ft | 475 kts | 284° |
| 2026-05-06 13:51 | 49.05817 | -1.02217 | 37990 ft | 475 kts | 284° |
| 2026-05-06 13:52 | 49.07403 | -1.12006 | 37990 ft | 475 kts | 283° |
| 2026-05-06 13:52 | 49.08985 | -1.21810 | 37990 ft | 475 kts | 283° |
| 2026-05-06 13:53 | 49.10563 | -1.31549 | 37990 ft | 475 kts | 283° |
| 2026-05-06 13:53 | 49.12148 | -1.41364 | 37983 ft | 475 kts | 283° |
| 2026-05-06 13:54 | 49.13712 | -1.51115 | 37980 ft | 475 kts | 283° |
| 2026-05-06 13:54 | 49.15277 | -1.60939 | 37990 ft | 474 kts | 283° |
| 2026-05-06 13:55 | 49.16825 | -1.70714 | 37990 ft | 474 kts | 283° |
| 2026-05-06 13:55 | 49.18360 | -1.80471 | 37989 ft | 474 kts | 283° |
| 2026-05-06 13:56 | 49.19897 | -1.90296 | 37989 ft | 474 kts | 283° |
| 2026-05-06 13:56 | 49.21424 | -2.00114 | 37989 ft | 474 kts | 283° |
| 2026-05-06 13:57 | 49.22962 | -2.09877 | 37990 ft | 474 kts | 284° |
| 2026-05-06 13:57 | 49.24642 | -2.19592 | 37989 ft | 473 kts | 285° |
| 2026-05-06 13:58 | 49.26348 | -2.29349 | 37990 ft | 473 kts | 284° |
| 2026-05-06 13:58 | 49.28025 | -2.39119 | 37998 ft | 473 kts | 284° |
| 2026-05-06 13:59 | 49.29668 | -2.48838 | 37999 ft | 473 kts | 284° |
| 2026-05-06 13:59 | 49.31304 | -2.58585 | 37999 ft | 473 kts | 284° |
| 2026-05-06 14:00 | 49.32938 | -2.68376 | 37991 ft | 473 kts | 284° |
| 2026-05-06 14:00 | 49.34566 | -2.78182 | 37989 ft | 473 kts | 284° |
| 2026-05-06 14:01 | 49.36182 | -2.87969 | 37990 ft | 473 kts | 284° |
| 2026-05-06 14:01 | 49.37779 | -2.97698 | 37990 ft | 473 kts | 284° |
| 2026-05-06 14:02 | 49.39384 | -3.07534 | 37989 ft | 473 kts | 284° |
| 2026-05-06 14:02 | 49.40968 | -3.17292 | 37998 ft | 473 kts | 283° |
| 2026-05-06 14:03 | 49.42552 | -3.27112 | 37999 ft | 473 kts | 283° |
| 2026-05-06 14:03 | 49.44116 | -3.36866 | 37999 ft | 473 kts | 283° |
| 2026-05-06 14:04 | 49.45685 | -3.46709 | 37999 ft | 472 kts | 283° |
| 2026-05-06 14:04 | 49.47236 | -3.56499 | 37999 ft | 472 kts | 283° |
| 2026-05-06 14:05 | 49.48784 | -3.66329 | 37999 ft | 472 kts | 283° |
| 2026-05-06 14:05 | 49.50316 | -3.76111 | 37999 ft | 472 kts | 283° |
| 2026-05-06 14:06 | 49.51851 | -3.85974 | 37999 ft | 472 kts | 283° |
| 2026-05-06 14:06 | 49.53374 | -3.95817 | 37999 ft | 472 kts | 283° |
| 2026-05-06 14:07 | 49.54878 | -4.05600 | 38008 ft | 472 kts | 283° |
| 2026-05-06 14:07 | 49.56386 | -4.15470 | 38008 ft | 472 kts | 283° |
| 2026-05-06 14:08 | 49.57875 | -4.25275 | 37999 ft | 472 kts | 283° |
| 2026-05-06 14:08 | 49.59571 | -4.35072 | 38001 ft | 472 kts | 288° |
| 2026-05-06 14:09 | 49.61691 | -4.44616 | 37999 ft | 472 kts | 289° |
| 2026-05-06 14:09 | 49.63887 | -4.54172 | 37999 ft | 471 kts | 289° |
| 2026-05-06 14:10 | 49.66068 | -4.63672 | 37999 ft | 471 kts | 289° |
| 2026-05-06 14:10 | 49.68251 | -4.73255 | 37999 ft | 471 kts | 289° |
| 2026-05-06 14:11 | 49.70406 | -4.82784 | 37999 ft | 471 kts | 289° |
| 2026-05-06 14:11 | 49.72563 | -4.92372 | 37999 ft | 471 kts | 289° |
| 2026-05-06 14:12 | 49.74697 | -5.01896 | 37999 ft | 471 kts | 288° |
| 2026-05-06 14:12 | 49.76836 | -5.11487 | 37999 ft | 471 kts | 288° |
| 2026-05-06 14:13 | 49.78953 | -5.21023 | 37999 ft | 471 kts | 288° |
| 2026-05-06 14:13 | 49.81080 | -5.30648 | 37999 ft | 470 kts | 288° |
| 2026-05-06 14:14 | 49.83180 | -5.40196 | 38003 ft | 470 kts | 288° |
| 2026-05-06 14:14 | 49.85284 | -5.49802 | 38008 ft | 470 kts | 288° |
| 2026-05-06 14:15 | 49.87366 | -5.59356 | 38008 ft | 470 kts | 288° |
| 2026-05-06 14:15 | 49.89456 | -5.68990 | 38008 ft | 469 kts | 288° |
| 2026-05-06 14:16 | 49.91520 | -5.78549 | 38017 ft | 469 kts | 288° |
| 2026-05-06 14:16 | 49.93585 | -5.88157 | 38017 ft | 469 kts | 288° |
| 2026-05-06 14:17 | 49.95636 | -5.97748 | 38017 ft | 469 kts | 288° |
| 2026-05-06 14:17 | 49.97341 | -6.05753 | 38017 ft | 469 kts | 288° |
| 2026-05-06 14:18 | 49.99722 | -6.16983 | 38017 ft | 469 kts | 288° |
| 2026-05-06 14:18 | 50.01417 | -6.25021 | 38017 ft | 469 kts | 287° |
| 2026-05-06 14:19 | 50.03438 | -6.34640 | 38017 ft | 469 kts | 287° |
| 2026-05-06 14:19 | 50.05461 | -6.44319 | 38017 ft | 469 kts | 287° |
| 2026-05-06 14:20 | 50.07461 | -6.53933 | 38017 ft | 469 kts | 287° |
| 2026-05-06 14:20 | 50.09468 | -6.63624 | 38017 ft | 469 kts | 287° |
| 2026-05-06 14:21 | 50.11458 | -6.73283 | 38017 ft | 468 kts | 287° |
| 2026-05-06 14:21 | 50.13432 | -6.82909 | 38017 ft | 468 kts | 287° |
| 2026-05-06 14:22 | 50.15410 | -6.92606 | 38017 ft | 468 kts | 287° |
| 2026-05-06 14:22 | 50.17370 | -7.02259 | 38026 ft | 468 kts | 287° |
| 2026-05-06 14:23 | 50.19321 | -7.11914 | 38025 ft | 468 kts | 287° |
| 2026-05-06 14:23 | 50.21278 | -7.21652 | 38026 ft | 468 kts | 287° |
| 2026-05-06 14:24 | 50.23211 | -7.31314 | 38024 ft | 468 kts | 287° |
| 2026-05-06 14:24 | 50.25146 | -7.41032 | 38025 ft | 468 kts | 287° |
| 2026-05-06 14:25 | 50.27063 | -7.50714 | 38026 ft | 468 kts | 287° |
| 2026-05-06 14:25 | 50.28982 | -7.60449 | 38029 ft | 468 kts | 287° |
| 2026-05-06 14:26 | 50.30886 | -7.70159 | 38024 ft | 468 kts | 287° |
| 2026-05-06 14:26 | 50.32792 | -7.79931 | 38030 ft | 468 kts | 287° |
| 2026-05-06 14:27 | 50.34690 | -7.89706 | 38030 ft | 468 kts | 287° |
| 2026-05-06 14:27 | 50.36512 | -7.99440 | 38027 ft | 468 kts | 283° |
| 2026-05-06 14:28 | 50.37841 | -8.09457 | 38025 ft | 468 kts | 281° |
| 2026-05-06 14:28 | 50.39049 | -8.19431 | 38024 ft | 468 kts | 281° |
| 2026-05-06 14:29 | 50.40242 | -8.29506 | 38027 ft | 468 kts | 281° |
| 2026-05-06 14:29 | 50.41422 | -8.39496 | 38024 ft | 468 kts | 281° |
| 2026-05-06 14:30 | 50.42606 | -8.49555 | 38024 ft | 468 kts | 281° |
| 2026-05-06 14:30 | 50.43784 | -8.59617 | 38017 ft | 468 kts | 280° |
| 2026-05-06 14:31 | 50.44947 | -8.69635 | 38017 ft | 468 kts | 280° |
| 2026-05-06 14:31 | 50.46108 | -8.79719 | 38017 ft | 468 kts | 280° |
| 2026-05-06 14:32 | 50.47249 | -8.89715 | 38017 ft | 468 kts | 280° |
| 2026-05-06 14:32 | 50.48391 | -8.99786 | 38017 ft | 468 kts | 280° |
| 2026-05-06 14:33 | 50.49519 | -9.09826 | 38018 ft | 468 kts | 280° |
| 2026-05-06 14:33 | 50.50645 | -9.19928 | 38017 ft | 468 kts | 280° |
| 2026-05-06 14:34 | 50.51760 | -9.30013 | 38017 ft | 468 kts | 280° |
| 2026-05-06 14:34 | 50.52859 | -9.40040 | 38017 ft | 468 kts | 280° |
| 2026-05-06 14:35 | 50.53960 | -9.50167 | 38017 ft | 469 kts | 279° |
| 2026-05-06 14:35 | 50.55052 | -9.60290 | 38031 ft | 469 kts | 279° |
| 2026-05-06 14:36 | 50.56128 | -9.70361 | 38031 ft | 469 kts | 279° |
| 2026-05-06 14:36 | 50.57203 | -9.80500 | 38025 ft | 469 kts | 279° |
| 2026-05-06 14:37 | 50.58263 | -9.90594 | 38028 ft | 469 kts | 279° |
| 2026-05-06 14:37 | 50.59321 | -10.00746 | 38025 ft | 469 kts | 279° |
| 2026-05-06 14:38 | 50.60364 | -10.10848 | 38024 ft | 470 kts | 279° |
| 2026-05-06 14:38 | 50.61407 | -10.21040 | 38029 ft | 470 kts | 279° |
| 2026-05-06 14:39 | 50.62435 | -10.31183 | 38028 ft | 471 kts | 279° |
| 2026-05-06 14:39 | 50.63461 | -10.41389 | 38029 ft | 471 kts | 279° |
| 2026-05-06 14:40 | 50.64477 | -10.51596 | 38028 ft | 471 kts | 279° |
| 2026-05-06 14:40 | 50.65478 | -10.61741 | 38029 ft | 471 kts | 279° |
| 2026-05-06 14:41 | 50.66478 | -10.71969 | 38028 ft | 471 kts | 279° |
| 2026-05-06 14:41 | 50.67463 | -10.82143 | 38025 ft | 471 kts | 279° |
| 2026-05-06 14:42 | 50.68441 | -10.92335 | 38025 ft | 471 kts | 279° |
| 2026-05-06 14:42 | 50.69415 | -11.02584 | 38025 ft | 471 kts | 279° |
| 2026-05-06 14:43 | 50.70374 | -11.12773 | 38028 ft | 472 kts | 279° |
| 2026-05-06 14:43 | 50.71330 | -11.23040 | 38025 ft | 472 kts | 279° |
| 2026-05-06 14:44 | 50.72278 | -11.33305 | 38025 ft | 472 kts | 279° |
| 2026-05-06 14:45 | 50.73679 | -11.48687 | 38026 ft | 473 kts | 278° |
| 2026-05-06 14:45 | 50.74607 | -11.59002 | 38024 ft | 473 kts | 278° |
| 2026-05-06 14:46 | 50.75522 | -11.69264 | 38028 ft | 473 kts | 278° |
| 2026-05-06 14:46 | 50.76431 | -11.79583 | 38030 ft | 473 kts | 278° |
| 2026-05-06 14:47 | 50.77326 | -11.89846 | 38029 ft | 474 kts | 278° |
| 2026-05-06 14:47 | 50.78219 | -12.00180 | 38024 ft | 474 kts | 278° |
| 2026-05-06 14:48 | 50.79106 | -12.10461 | 38023 ft | 474 kts | 279° |
| 2026-05-06 14:48 | 50.79991 | -12.20824 | 38029 ft | 475 kts | 278° |
| 2026-05-06 14:49 | 50.80842 | -12.31140 | 38024 ft | 475 kts | 278° |
| 2026-05-06 14:49 | 50.81695 | -12.41536 | 38027 ft | 475 kts | 278° |
| 2026-05-06 14:50 | 50.82537 | -12.51863 | 38025 ft | 475 kts | 278° |
| 2026-05-06 14:50 | 50.83378 | -12.62258 | 38025 ft | 475 kts | 278° |
| 2026-05-06 14:51 | 50.84204 | -12.72581 | 38030 ft | 475 kts | 278° |
| 2026-05-06 14:51 | 50.85026 | -12.82987 | 38025 ft | 475 kts | 278° |
| 2026-05-06 14:52 | 50.85838 | -12.93386 | 38025 ft | 476 kts | 278° |
| 2026-05-06 14:52 | 50.86635 | -13.03720 | 38025 ft | 475 kts | 278° |
| 2026-05-06 14:53 | 50.87430 | -13.14134 | 38024 ft | 476 kts | 278° |
| 2026-05-06 14:53 | 50.88211 | -13.24499 | 38024 ft | 476 kts | 278° |
| 2026-05-06 14:54 | 50.88989 | -13.34950 | 38024 ft | 476 kts | 278° |
| 2026-05-06 14:54 | 50.89751 | -13.45318 | 38029 ft | 476 kts | 278° |
| 2026-05-06 14:55 | 50.90509 | -13.55757 | 38030 ft | 476 kts | 278° |
| 2026-05-06 14:55 | 50.91254 | -13.66143 | 38029 ft | 476 kts | 278° |
| 2026-05-06 14:56 | 50.91995 | -13.76605 | 38036 ft | 476 kts | 278° |
| 2026-05-06 14:56 | 50.92719 | -13.86973 | 38036 ft | 476 kts | 277° |
| 2026-05-06 14:57 | 50.93440 | -13.97432 | 38036 ft | 476 kts | 278° |